Startpagina
METAR-TAF:

METAR-TAF

Vliegvelden :

Internationale luchthaven Chengdu Shuangliu

Chengdu, China

breedte: 30-40N, lengte: 104-01E, hoogte: 508 m

Actueel weer

Dit bericht is 1 uur en het 11 minuten geleden gemaakt, om 17:00 UTC
Weinig wind
Temperatuur 22°C
Vochtigheid 78%
Druk 1008 hPa
Zicht 10 km of meer
geen wolken onder 1500 m en geen cumulonimbus

METAR: ZUUU 221700Z 00000MPS CAVOK 22/18 Q1008 NOSIG

Tijdstip: 02:11 (18:11 UTC)

Verwachting

Dit bericht is 3 uur en het 56 minuten geleden gemaakt, om 14:15 UTC
Verwachting geldig van 22 om 18 UTC tot 23 om 18 UTC
Wind 6 kt uit het zuidzuidwesten
Zicht: 5000 m
Verspreide wolken op 4000 ft
nevel

TAF: ZUUU 221415Z 2218/2318 20003MPS 5000 BR SCT040 TX30/2307Z TN18/2222Z

Waarnemingen en weersverwachtingen van meer dan 4000 vliegvelden (METAR en TAF).

De beschikbare stations zijn de gele en rode punten op de kaart.

Ga met uw muis naar het station om de naam te zien.

Klik dan om waarnemingen en weersverwachtingen te zien.

kaart wijzigen: klik op de groene knoppen met een zwart kruis om in te zoomen, op de groene knop met een streepje om uit te zoomen of op de groene pijlen voor aangrenzende kaarten.


METAR-TAF: